Time;durP1;ratioP1;P1;durP2;ratioP2;P2;SDS_P1;SDS_P2;PMS_P1;PMS_P2;Temp;Humidity;BMP_temperature;BMP_pressure;BME280_temperature;BME280_humidity;BME280_pressure;Samples;Min_cycle;Max_cycle;Signal;HPM_P1;HPM_P2
2023/07/13 00:01:47;;;;;;;11.55;2.25;;;17.20;99.90;;;;;;5031276;28;20037;-66
2023/07/13 00:04:14;;;;;;;6.45;1.77;;;17.10;99.90;;;;;;5029413;28;20044;-66
2023/07/13 00:06:39;;;;;;;7.38;2.45;;;17.20;99.90;;;;;;5030797;28;20407;-66
2023/07/13 00:09:06;;;;;;;6.47;2.33;;;17.10;99.90;;;;;;5031200;28;20048;-66
2023/07/13 00:11:32;;;;;;;7.68;2.13;;;17.10;99.90;;;;;;5031194;28;20495;-66
2023/07/13 00:13:57;;;;;;;8.20;1.98;;;17.10;99.90;;;;;;5030233;28;20042;-66
2023/07/13 00:16:23;;;;;;;7.32;2.08;;;17.10;99.90;;;;;;5029663;28;20400;-66
2023/07/13 00:18:49;;;;;;;8.13;2.30;;;17.10;99.90;;;;;;5030262;28;20041;-66
2023/07/13 00:21:14;;;;;;;9.65;2.20;;;17.10;99.90;;;;;;5031050;28;20091;-66
2023/07/13 00:23:41;;;;;;;6.60;2.33;;;17.00;99.90;;;;;;5030168;28;20029;-66
2023/07/13 00:26:09;;;;;;;6.93;2.00;;;17.00;99.90;;;;;;5022920;28;20030;-66
2023/07/13 00:28:35;;;;;;;5.50;1.88;;;17.00;99.90;;;;;;5029693;28;20068;-66
2023/07/13 00:31:02;;;;;;;8.55;2.40;;;16.90;99.90;;;;;;5031003;28;20072;-66
2023/07/13 00:33:28;;;;;;;8.95;2.42;;;16.90;99.90;;;;;;5028859;28;20033;-66
2023/07/13 00:35:55;;;;;;;5.35;1.98;;;16.90;99.90;;;;;;5030847;28;20037;-66
2023/07/13 00:38:22;;;;;;;7.18;2.25;;;16.90;99.90;;;;;;5031345;28;20033;-66
2023/07/13 00:40:47;;;;;;;6.63;1.85;;;16.90;99.90;;;;;;5030340;28;20030;-66
2023/07/13 00:43:19;;;;;;;6.88;2.15;;;16.80;99.90;;;;;;5029912;28;20522;-66
2023/07/13 00:45:45;;;;;;;6.40;2.72;;;16.90;99.90;;;;;;5026792;28;20053;-66
2023/07/13 00:48:20;;;;;;;7.80;2.80;;;16.80;99.90;;;;;;5031899;28;20033;-66
2023/07/13 00:50:49;;;;;;;8.57;2.50;;;16.80;99.90;;;;;;5033358;28;20045;-66
2023/07/13 00:53:16;;;;;;;8.73;2.20;;;16.80;99.90;;;;;;5019643;28;20395;-66
2023/07/13 00:55:42;;;;;;;9.18;2.88;;;16.80;99.90;;;;;;5032867;28;20064;-66
2023/07/13 00:58:08;;;;;;;7.15;2.03;;;16.80;99.90;;;;;;5032855;28;20407;-66
2023/07/13 01:00:36;;;;;;;7.70;2.40;;;16.80;99.90;;;;;;5028612;28;20033;-66
2023/07/13 01:03:04;;;;;;;10.07;2.40;;;16.80;99.90;;;;;;5034565;28;20037;-66
2023/07/13 01:05:32;;;;;;;10.57;2.45;;;16.80;99.90;;;;;;5032257;28;20545;-66
2023/07/13 01:07:59;;;;;;;9.85;2.70;;;16.80;99.90;;;;;;5034656;28;20395;-66
2023/07/13 01:10:25;;;;;;;6.78;2.22;;;16.70;99.90;;;;;;5033383;28;20049;-66
2023/07/13 01:12:52;;;;;;;6.50;2.10;;;16.70;99.90;;;;;;5031827;28;20502;-66
2023/07/13 01:15:44;;;;;;;9.02;2.50;;;16.70;99.90;;;;;;5032273;28;20037;-66
2023/07/13 01:18:14;;;;;;;7.80;2.90;;;16.70;99.90;;;;;;5032766;28;20483;-66
2023/07/13 01:20:41;;;;;;;6.57;2.45;;;16.70;99.90;;;;;;5032293;28;20046;-66
2023/07/13 01:23:10;;;;;;;8.35;2.20;;;16.60;99.90;;;;;;5032722;28;20043;-66
2023/07/13 01:25:37;;;;;;;8.68;2.58;;;16.70;99.90;;;;;;5032449;28;20052;-66
2023/07/13 01:28:05;;;;;;;8.07;2.75;;;16.70;99.90;;;;;;5032644;28;20470;-66
2023/07/13 01:30:31;;;;;;;11.75;2.70;;;16.60;99.90;;;;;;5032405;28;20041;-66
2023/07/13 01:32:57;;;;;;;8.15;2.80;;;16.70;99.90;;;;;;5032275;28;20495;-66
2023/07/13 01:35:25;;;;;;;8.40;2.72;;;16.70;99.90;;;;;;5032820;28;20120;-66
2023/07/13 01:37:51;;;;;;;7.15;2.47;;;16.70;99.90;;;;;;5033563;28;20041;-66
2023/07/13 01:40:16;;;;;;;8.10;2.20;;;16.70;99.90;;;;;;5034068;28;20120;-66
2023/07/13 01:42:42;;;;;;;5.90;2.08;;;16.70;99.90;;;;;;5032859;28;20075;-66
2023/07/13 01:45:08;;;;;;;6.20;2.00;;;16.70;99.90;;;;;;5031358;28;21247;-66
2023/07/13 01:47:34;;;;;;;3.85;1.75;;;16.70;99.90;;;;;;5033323;28;20115;-66
2023/07/13 01:50:00;;;;;;;7.95;2.47;;;16.70;99.90;;;;;;5032552;28;20488;-66
2023/07/13 01:52:25;;;;;;;11.00;2.40;;;16.70;99.90;;;;;;5033101;28;20479;-66
2023/07/13 01:54:51;;;;;;;11.50;2.58;;;16.70;99.90;;;;;;5032742;28;20037;-66
2023/07/13 01:57:17;;;;;;;8.48;2.38;;;16.70;99.90;;;;;;5032338;28;20037;-66
2023/07/13 01:59:42;;;;;;;9.85;2.63;;;16.70;99.90;;;;;;5030574;28;20045;-65
2023/07/13 02:02:08;;;;;;;8.40;2.72;;;16.70;99.90;;;;;;5030695;28;20132;-65
2023/07/13 02:04:34;;;;;;;10.63;2.60;;;16.70;99.90;;;;;;5029956;28;20053;-66
2023/07/13 02:06:59;;;;;;;11.75;2.50;;;16.80;99.90;;;;;;5029765;28;20117;-65
2023/07/13 02:09:25;;;;;;;9.57;2.38;;;16.70;99.90;;;;;;5031530;28;20041;-65
2023/07/13 02:11:51;;;;;;;6.90;2.38;;;16.80;99.90;;;;;;5031304;28;20667;-65
2023/07/13 02:14:16;;;;;;;7.90;2.70;;;16.80;99.90;;;;;;5031490;28;20060;-66
2023/07/13 02:16:42;;;;;;;7.65;2.38;;;16.80;99.90;;;;;;5030885;28;20045;-66
2023/07/13 02:19:08;;;;;;;11.02;2.63;;;16.80;99.90;;;;;;5032399;28;20694;-66
2023/07/13 02:21:34;;;;;;;7.75;2.50;;;16.80;99.90;;;;;;5032544;28;20033;-65
2023/07/13 02:24:00;;;;;;;9.35;2.60;;;16.80;99.90;;;;;;5027452;28;20392;-66
2023/07/13 02:26:26;;;;;;;7.25;2.78;;;16.70;99.90;;;;;;5028442;28;20073;-65
2023/07/13 02:28:52;;;;;;;10.50;2.60;;;16.70;99.90;;;;;;5030781;28;20045;-65
2023/07/13 02:31:18;;;;;;;5.40;2.33;;;16.70;99.90;;;;;;5028282;28;20026;-65
2023/07/13 02:33:43;;;;;;;10.68;2.70;;;16.60;99.90;;;;;;5029550;28;20527;-65
2023/07/13 02:36:09;;;;;;;11.30;3.60;;;16.60;99.90;;;;;;5031740;28;20045;-65
2023/07/13 02:38:36;;;;;;;12.80;2.50;;;16.60;99.90;;;;;;5029547;28;20051;-66
2023/07/13 02:41:05;;;;;;;9.68;2.40;;;16.60;99.90;;;;;;5031155;28;20045;-65
2023/07/13 02:43:31;;;;;;;12.10;2.75;;;16.60;99.90;;;;;;5031957;28;20037;-65
2023/07/13 02:46:00;;;;;;;8.50;2.88;;;16.60;99.90;;;;;;5031857;28;20037;-65
2023/07/13 02:48:26;;;;;;;6.35;2.72;;;16.60;99.90;;;;;;5028112;28;20438;-66
2023/07/13 02:50:51;;;;;;;11.50;3.08;;;16.60;99.90;;;;;;5029966;28;20115;-65
2023/07/13 02:53:17;;;;;;;7.32;2.50;;;16.60;99.90;;;;;;5032166;28;20088;-65
2023/07/13 02:55:47;;;;;;;10.43;2.60;;;16.70;99.90;;;;;;5029945;28;20498;-65
2023/07/13 02:58:16;;;;;;;14.63;3.45;;;16.70;99.90;;;;;;5031036;28;20033;-66
2023/07/13 03:00:43;;;;;;;10.00;3.00;;;16.60;99.90;;;;;;5030102;28;20116;-66
2023/07/13 03:03:09;;;;;;;9.75;2.58;;;16.60;99.90;;;;;;5031903;28;20041;-66
2023/07/13 03:05:34;;;;;;;9.25;2.60;;;16.60;99.90;;;;;;5030170;28;20455;-66
2023/07/13 03:08:00;;;;;;;12.18;3.05;;;16.60;99.90;;;;;;5032097;28;20033;-66
2023/07/13 03:10:25;;;;;;;7.70;2.53;;;16.60;99.90;;;;;;5030592;28;20502;-66
2023/07/13 03:12:51;;;;;;;13.88;3.05;;;16.60;99.90;;;;;;5030633;28;20033;-66
2023/07/13 03:15:17;;;;;;;12.43;3.20;;;16.60;99.90;;;;;;5030757;28;20034;-66
2023/07/13 03:17:42;;;;;;;7.65;3.10;;;16.60;99.90;;;;;;5030725;28;20131;-66
2023/07/13 03:20:09;;;;;;;10.02;3.25;;;16.70;99.90;;;;;;5031007;28;20047;-66
2023/07/13 03:22:34;;;;;;;13.70;3.00;;;16.60;99.90;;;;;;5029700;28;20179;-66
2023/07/13 03:25:00;;;;;;;8.05;3.05;;;16.60;99.90;;;;;;5031724;28;20120;-66
2023/07/13 03:27:25;;;;;;;10.70;3.00;;;16.70;99.90;;;;;;5031975;28;20483;-66
2023/07/13 03:29:51;;;;;;;11.05;3.10;;;16.60;99.90;;;;;;5028529;28;20095;-66
2023/07/13 03:32:17;;;;;;;8.57;2.70;;;16.60;99.90;;;;;;5031712;28;20114;-66
2023/07/13 03:34:42;;;;;;;15.25;3.78;;;16.60;99.90;;;;;;5031118;28;20070;-66
2023/07/13 03:37:08;;;;;;;10.40;2.85;;;16.60;99.90;;;;;;5031742;28;20056;-66
2023/07/13 03:39:33;;;;;;;9.75;2.88;;;16.60;99.90;;;;;;5029642;28;20029;-66
2023/07/13 03:41:59;;;;;;;9.45;3.20;;;16.60;99.90;;;;;;5031682;28;20088;-66
2023/07/13 03:44:25;;;;;;;9.90;3.10;;;16.60;99.90;;;;;;5031082;28;20037;-66
2023/07/13 03:46:50;;;;;;;13.52;3.58;;;16.60;99.90;;;;;;5028937;28;20071;-66
2023/07/13 03:49:16;;;;;;;12.65;3.42;;;16.60;99.90;;;;;;5029625;28;20099;-66
2023/07/13 03:51:41;;;;;;;7.00;3.28;;;16.50;99.90;;;;;;5031139;28;20034;-66
2023/07/13 03:54:07;;;;;;;12.10;2.92;;;16.50;99.90;;;;;;5030990;28;20495;-65
2023/07/13 03:56:33;;;;;;;10.57;3.20;;;16.50;99.90;;;;;;5031498;28;20090;-66
2023/07/13 03:58:59;;;;;;;10.57;3.05;;;16.50;99.90;;;;;;5030145;28;20033;-66
2023/07/13 04:01:25;;;;;;;9.27;2.85;;;16.40;99.90;;;;;;5027920;28;20042;-66
2023/07/13 04:03:52;;;;;;;8.35;2.60;;;16.40;99.90;;;;;;5030115;28;20044;-65
2023/07/13 04:06:21;;;;;;;8.80;3.17;;;16.50;99.90;;;;;;5027514;28;20041;-66
2023/07/13 04:08:50;;;;;;;12.00;2.70;;;16.40;99.90;;;;;;5029624;28;20034;-66
2023/07/13 04:11:16;;;;;;;7.43;2.78;;;16.40;99.90;;;;;;5024710;28;20490;-66
2023/07/13 04:13:41;;;;;;;8.40;2.95;;;16.40;99.90;;;;;;5029273;28;20068;-66
2023/07/13 04:16:07;;;;;;;9.25;3.03;;;16.40;99.90;;;;;;5030148;28;20090;-66
2023/07/13 04:18:32;;;;;;;12.05;3.03;;;16.40;99.90;;;;;;5029379;28;20059;-66
2023/07/13 04:20:58;;;;;;;8.23;2.75;;;16.50;99.90;;;;;;5030051;28;20587;-66
2023/07/13 04:23:24;;;;;;;12.23;2.90;;;16.50;99.90;;;;;;5031572;28;20099;-65
2023/07/13 04:25:52;;;;;;;12.70;3.30;;;16.40;99.90;;;;;;5032494;28;20049;-66
2023/07/13 04:28:23;;;;;;;13.70;3.67;;;16.40;99.90;;;;;;5033591;28;20454;-65
2023/07/13 04:30:49;;;;;;;;;;;16.30;99.90;;;;;;5034683;28;20407;-66
2023/07/13 04:33:16;;;;;;;11.80;3.20;;;16.30;99.90;;;;;;5031518;28;19921;-65
2023/07/13 04:35:43;;;;;;;11.50;3.40;;;16.30;99.90;;;;;;5033580;28;20128;-65
2023/07/13 04:38:11;;;;;;;14.65;3.35;;;16.30;99.90;;;;;;5033975;28;20053;-65
2023/07/13 04:40:37;;;;;;;12.48;3.25;;;16.30;99.90;;;;;;5033212;28;20030;-65
2023/07/13 04:43:02;;;;;;;12.65;3.22;;;16.30;99.90;;;;;;5033993;28;20164;-66
2023/07/13 04:45:28;;;;;;;11.13;3.78;;;16.20;99.90;;;;;;5032760;28;20073;-65
2023/07/13 04:47:54;;;;;;;11.23;3.20;;;16.20;99.90;;;;;;5034134;28;20037;-65
2023/07/13 04:50:22;;;;;;;10.02;3.75;;;16.20;99.90;;;;;;5033215;28;20040;-66
2023/07/13 04:52:50;;;;;;;11.57;3.92;;;16.20;99.90;;;;;;5031798;28;20521;-65
2023/07/13 04:55:16;;;;;;;10.38;3.67;;;16.20;99.90;;;;;;5033332;28;20056;-65
2023/07/13 05:00:12;;;;;;;10.10;3.50;;;16.20;99.90;;;;;;5031169;28;20380;-68
2023/07/13 05:02:38;;;;;;;10.93;3.13;;;16.20;99.90;;;;;;5032204;28;20052;-68
2023/07/13 05:05:05;;;;;;;12.45;3.58;;;16.20;99.90;;;;;;5034071;28;20076;-68
2023/07/13 05:07:32;;;;;;;11.05;3.60;;;16.20;99.90;;;;;;5034498;28;20049;-68
2023/07/13 05:09:59;;;;;;;14.65;3.50;;;16.30;99.90;;;;;;5032799;28;20069;-68
2023/07/13 05:12:25;;;;;;;10.73;2.97;;;16.40;99.90;;;;;;5033382;28;20045;-68
2023/07/13 05:14:50;;;;;;;8.20;3.42;;;16.50;99.90;;;;;;5024773;28;20091;-68
2023/07/13 05:17:16;;;;;;;8.55;3.22;;;16.60;99.90;;;;;;5033779;28;20116;-68
2023/07/13 05:19:41;;;;;;;10.48;3.50;;;16.70;99.90;;;;;;5025297;28;20487;-68
2023/07/13 05:22:07;;;;;;;10.82;3.38;;;16.80;99.90;;;;;;5032317;28;20121;-67
2023/07/13 05:24:33;;;;;;;9.13;3.25;;;16.80;99.90;;;;;;5027727;28;20452;-68
2023/07/13 05:26:59;;;;;;;8.10;3.90;;;16.80;99.90;;;;;;5023182;28;20041;-67
2023/07/13 05:29:24;;;;;;;10.70;3.45;;;16.90;99.90;;;;;;5033234;28;20045;-68
2023/07/13 05:31:50;;;;;;;9.52;3.58;;;17.00;99.90;;;;;;5034469;28;20446;-68
2023/07/13 05:34:17;;;;;;;13.02;4.10;;;17.10;99.90;;;;;;5027431;28;20048;-67
2023/07/13 05:36:42;;;;;;;15.88;3.95;;;17.10;99.90;;;;;;5031727;28;20050;-67
2023/07/13 05:39:08;;;;;;;11.77;3.55;;;17.10;99.90;;;;;;5033606;28;20410;-67
2023/07/13 05:41:35;;;;;;;9.18;4.03;;;17.30;99.90;;;;;;5028435;28;20069;-67
2023/07/13 05:44:00;;;;;;;10.88;3.33;;;17.30;99.90;;;;;;5032718;28;20609;-68
2023/07/13 05:46:26;;;;;;;8.00;3.33;;;17.40;99.90;;;;;;5031579;28;20049;-67
2023/07/13 05:48:52;;;;;;;10.63;3.47;;;17.60;99.90;;;;;;5033742;28;20033;-67
2023/07/13 05:51:17;;;;;;;9.68;3.00;;;17.70;99.90;;;;;;5032676;28;20494;-67
2023/07/13 05:53:43;;;;;;;11.65;3.53;;;17.80;99.90;;;;;;5030328;28;20517;-67
2023/07/13 05:56:09;;;;;;;12.15;3.60;;;17.80;99.90;;;;;;5030948;28;20123;-68
2023/07/13 05:58:34;;;;;;;10.98;3.80;;;17.70;99.90;;;;;;5029016;28;20044;-68
2023/07/13 06:01:07;;;;;;;13.32;4.00;;;17.80;99.90;;;;;;5030660;28;20040;-67
2023/07/13 06:03:33;;;;;;;10.30;3.25;;;17.70;99.90;;;;;;5033223;28;20074;-68
2023/07/13 06:06:02;;;;;;;9.52;3.25;;;17.80;99.90;;;;;;5028901;28;20041;-67
2023/07/13 06:08:28;;;;;;;13.45;3.75;;;17.80;99.90;;;;;;5032840;28;20073;-68
2023/07/13 06:10:53;;;;;;;10.63;3.28;;;17.80;99.90;;;;;;5032927;28;20087;-68
2023/07/13 06:13:19;;;;;;;11.05;4.05;;;18.00;99.90;;;;;;5033093;28;20075;-68
2023/07/13 06:15:50;;;;;;;9.90;3.60;;;17.90;99.90;;;;;;5032828;28;20080;-68
2023/07/13 06:18:16;;;;;;;9.70;3.33;;;18.10;99.90;;;;;;5033002;28;20041;-68
2023/07/13 06:20:42;;;;;;;11.05;3.30;;;18.10;99.90;;;;;;5032809;28;20099;-68
2023/07/13 06:23:08;;;;;;;9.73;3.47;;;18.20;99.90;;;;;;5033601;28;20034;-68
2023/07/13 06:25:34;;;;;;;12.27;3.70;;;18.20;99.90;;;;;;5030410;28;20498;-69
2023/07/13 06:28:00;;;;;;;10.88;3.30;;;18.30;99.90;;;;;;5032254;28;20045;-69
2023/07/13 06:30:26;;;;;;;7.68;3.25;;;18.40;99.90;;;;;;5024355;28;20045;-69
2023/07/13 06:32:52;;;;;;;8.90;3.50;;;18.50;99.90;;;;;;5032670;28;20052;-68
2023/07/13 06:35:18;;;;;;;8.88;3.20;;;18.60;99.90;;;;;;5031880;28;20046;-68
2023/07/13 06:37:43;;;;;;;9.98;3.47;;;18.70;99.90;;;;;;5032561;28;20068;-68
2023/07/13 06:40:09;;;;;;;8.10;3.33;;;18.70;99.90;;;;;;5030876;28;20050;-69
2023/07/13 06:42:35;;;;;;;13.38;3.47;;;18.90;99.90;;;;;;5032802;28;20033;-69
2023/07/13 06:45:01;;;;;;;12.00;3.47;;;19.00;99.90;;;;;;5031777;28;20495;-69
2023/07/13 06:47:27;;;;;;;9.68;3.38;;;19.10;99.90;;;;;;5032908;28;20442;-68
2023/07/13 06:49:52;;;;;;;11.80;3.60;;;19.20;99.90;;;;;;5032330;28;20460;-68
2023/07/13 06:52:18;;;;;;;7.25;2.97;;;19.30;99.90;;;;;;5032791;28;20033;-69
2023/07/13 06:54:43;;;;;;;11.63;3.53;;;19.40;99.90;;;;;;5032824;28;20041;-68
2023/07/13 06:57:09;;;;;;;11.68;3.40;;;19.60;99.90;;;;;;5032421;28;20108;-68
2023/07/13 06:59:35;;;;;;;9.13;3.15;;;19.80;99.90;;;;;;5031981;28;20076;-68
2023/07/13 07:02:00;;;;;;;7.65;3.75;;;19.90;99.90;;;;;;5032126;28;20073;-68
2023/07/13 07:04:26;;;;;;;12.20;3.30;;;19.90;99.90;;;;;;5030947;28;20076;-68
2023/07/13 07:06:52;;;;;;;12.13;3.67;;;19.80;99.90;;;;;;5026111;28;20103;-68
2023/07/13 07:09:17;;;;;;;11.93;3.15;;;19.70;99.90;;;;;;5023841;28;20065;-68
2023/07/13 07:11:43;;;;;;;7.20;2.92;;;19.60;99.90;;;;;;5031985;28;20099;-68
2023/07/13 07:14:09;;;;;;;9.25;3.10;;;19.50;99.90;;;;;;5031516;28;20038;-69
2023/07/13 07:16:34;;;;;;;10.70;3.17;;;19.40;99.90;;;;;;5031490;28;20426;-67
2023/07/13 07:19:00;;;;;;;10.13;3.17;;;19.40;99.90;;;;;;5031943;28;20044;-68
2023/07/13 07:21:26;;;;;;;9.65;3.50;;;19.30;99.90;;;;;;5032551;28;20084;-68
2023/07/13 07:23:52;;;;;;;12.07;3.30;;;19.20;99.90;;;;;;5031649;28;20507;-67
2023/07/13 07:26:18;;;;;;;9.13;3.20;;;19.20;99.90;;;;;;5023865;28;20061;-68
2023/07/13 07:28:44;;;;;;;11.35;4.38;;;19.20;99.90;;;;;;5026947;28;20045;-64
2023/07/13 07:31:10;;;;;;;12.00;3.63;;;19.20;99.90;;;;;;5030802;28;20327;-64
2023/07/13 07:33:36;;;;;;;9.05;3.05;;;19.20;99.90;;;;;;5025241;28;20045;-64
2023/07/13 07:36:03;;;;;;;8.93;2.90;;;19.10;99.90;;;;;;5020981;28;20064;-64
2023/07/13 07:38:29;;;;;;;11.15;3.53;;;19.10;99.90;;;;;;5029422;28;20120;-63
2023/07/13 07:40:54;;;;;;;10.50;3.13;;;19.10;99.90;;;;;;5024678;28;20495;-65
2023/07/13 07:43:20;;;;;;;12.77;3.40;;;19.10;99.90;;;;;;5020317;28;20277;-65
2023/07/13 07:45:46;;;;;;;11.65;3.97;;;19.00;99.90;;;;;;5023549;28;20045;-65
2023/07/13 07:48:12;;;;;;;6.30;3.13;;;18.90;99.90;;;;;;5018994;28;20041;-65
2023/07/13 07:50:38;;;;;;;12.80;3.58;;;18.90;99.90;;;;;;5020410;28;20052;-65
2023/07/13 07:53:07;;;;;;;11.20;3.50;;;18.80;99.90;;;;;;5020147;28;20042;-65
2023/07/13 07:55:34;;;;;;;8.65;3.25;;;18.80;99.90;;;;;;5030660;28;20517;-65
2023/07/13 07:57:59;;;;;;;10.32;3.75;;;18.90;99.90;;;;;;5027786;28;20518;-64
2023/07/13 08:00:25;;;;;;;14.77;3.97;;;18.90;99.90;;;;;;5021057;28;20044;-65
2023/07/13 08:02:52;;;;;;;14.27;4.03;;;18.90;99.90;;;;;;5027927;28;20042;-64
2023/07/13 08:05:17;;;;;;;13.32;4.80;;;18.90;99.90;;;;;;5025091;28;20045;-64
2023/07/13 08:07:43;;;;;;;8.93;4.22;;;18.90;99.90;;;;;;5029884;28;20500;-65
2023/07/13 08:10:09;;;;;;;12.25;4.57;;;18.90;99.90;;;;;;5030274;28;20037;-65
2023/07/13 08:12:35;;;;;;;12.95;3.83;;;19.00;99.90;;;;;;5030197;28;20038;-65
2023/07/13 08:15:01;;;;;;;11.90;4.32;;;19.00;99.90;;;;;;5018483;28;20120;-65
2023/07/13 08:17:27;;;;;;;10.75;3.83;;;19.20;99.90;;;;;;5028679;28;20116;-65
2023/07/13 08:19:53;;;;;;;12.75;4.00;;;19.30;99.90;;;;;;5027333;28;20034;-65
2023/07/13 08:22:19;;;;;;;13.75;4.32;;;19.40;99.90;;;;;;5016210;28;20134;-66
2023/07/13 08:24:44;;;;;;;9.75;4.07;;;19.60;99.90;;;;;;5022702;28;20092;-66
2023/07/13 08:27:11;;;;;;;14.05;4.60;;;19.70;99.90;;;;;;5030793;28;20040;-66
2023/07/13 08:29:37;;;;;;;13.73;4.40;;;19.70;99.90;;;;;;5025676;28;20565;-67
2023/07/13 08:32:08;;;;;;;14.32;4.45;;;19.80;99.90;;;;;;5027579;28;20060;-66
2023/07/13 08:34:35;;;;;;;11.52;4.05;;;19.90;99.90;;;;;;5021104;28;20445;-66
2023/07/13 08:37:01;;;;;;;14.75;4.80;;;20.00;99.90;;;;;;5020600;28;20064;-66
2023/07/13 08:39:27;;;;;;;10.60;4.53;;;20.00;99.90;;;;;;5030001;28;20041;-67
2023/07/13 08:42:01;;;;;;;12.80;4.63;;;20.10;99.90;;;;;;5023192;28;20049;-66
2023/07/13 08:45:02;;;;;;;10.55;4.00;;;20.30;99.90;;;;;;5026904;28;20042;-66
2023/07/13 08:47:29;;;;;;;12.98;4.55;;;20.30;99.90;;;;;;5015195;28;20107;-65
2023/07/13 08:49:56;;;;;;;13.30;4.85;;;20.30;99.90;;;;;;5019809;28;20407;-66
2023/07/13 08:52:37;;;;;;;14.77;5.93;;;20.40;99.90;;;;;;5024991;28;20033;-66
2023/07/13 08:55:11;;;;;;;;;;;20.50;99.90;;;;;;5029663;28;20052;-66
2023/07/13 08:57:39;;;;;;;14.25;5.55;;;20.40;99.90;;;;;;5023926;28;20378;-66
2023/07/13 09:00:08;;;;;;;14.13;6.20;;;20.30;99.90;;;;;;5027105;28;20044;-66
2023/07/13 09:02:45;;;;;;;15.10;6.30;;;20.10;99.90;;;;;;5026533;28;20506;-67
2023/07/13 09:05:16;;;;;;;12.52;6.57;;;20.00;99.90;;;;;;5029588;28;21198;-66
2023/07/13 09:07:59;;;;;;;10.25;5.80;;;19.80;99.90;;;;;;5022115;28;20544;-66
2023/07/13 09:10:32;;;;;;;11.43;6.20;;;19.70;99.90;;;;;;5026699;28;20076;-66
2023/07/13 09:13:26;;;;;;;15.07;4.88;;;19.60;99.90;;;;;;5023434;28;20030;-68
2023/07/13 09:15:52;;;;;;;7.10;2.88;;;19.40;99.90;;;;;;5025502;28;20038;-70
2023/07/13 09:18:42;;;;;;;7.95;2.85;;;19.00;99.90;;;;;;5021016;28;20033;-69
2023/07/13 09:21:15;;;;;;;15.32;4.70;;;18.60;99.90;;;;;;5042571;28;20049;-68
2023/07/13 09:23:41;;;;;;;15.23;4.43;;;18.10;99.90;;;;;;5031140;28;20492;-67
2023/07/13 09:26:13;;;;;;;8.15;5.10;;;17.70;99.90;;;;;;5030528;28;20049;-68
2023/07/13 09:28:43;;;;;;;12.60;5.32;;;17.50;99.90;;;;;;5030674;28;20043;-67
2023/07/13 09:31:29;;;;;;;8.32;6.05;;;17.30;99.90;;;;;;5034122;28;20504;-67
2023/07/13 09:33:55;;;;;;;7.88;4.57;;;17.30;99.90;;;;;;5032386;28;20116;-68
2023/07/13 09:36:23;;;;;;;4.70;2.30;;;17.30;99.90;;;;;;5031629;28;20351;-68
2023/07/13 09:39:02;;;;;;;3.15;1.70;;;17.10;99.90;;;;;;5025894;28;20066;-68
2023/07/13 09:41:50;;;;;;;3.33;1.65;;;16.90;99.90;;;;;;5025991;28;20051;-68
2023/07/13 09:44:18;;;;;;;3.22;1.85;;;16.80;99.90;;;;;;5026295;28;20037;-68
2023/07/13 09:46:46;;;;;;;3.08;1.17;;;16.60;99.90;;;;;;5026123;28;20116;-68
2023/07/13 09:49:12;;;;;;;2.20;1.30;;;16.50;99.90;;;;;;5024430;28;20033;-68
2023/07/13 09:51:41;;;;;;;2.33;1.10;;;16.50;99.90;;;;;;5026004;28;20045;-68
2023/07/13 09:54:18;;;;;;;2.00;1.20;;;16.40;99.90;;;;;;5027778;28;20045;-68
2023/07/13 09:56:44;;;;;;;1.83;1.00;;;16.40;99.90;;;;;;5022782;28;20060;-69
2023/07/13 09:59:21;;;;;;;1.40;1.05;;;16.40;99.90;;;;;;5023964;28;20056;-68
2023/07/13 10:01:48;;;;;;;2.72;1.23;;;16.60;99.90;;;;;;5026079;28;20048;-68
2023/07/13 10:04:18;;;;;;;1.80;1.13;;;16.60;99.90;;;;;;5024265;28;20468;-67
2023/07/13 10:06:44;;;;;;;1.20;0.93;;;16.70;99.90;;;;;;5031269;28;20067;-68
2023/07/13 10:09:14;;;;;;;2.95;1.10;;;16.90;99.90;;;;;;5022123;28;20042;-68
2023/07/13 10:11:41;;;;;;;2.33;1.30;;;16.90;99.90;;;;;;5024958;28;20041;-67
2023/07/13 10:14:14;;;;;;;2.17;1.20;;;17.10;99.90;;;;;;5023362;28;20057;-67
2023/07/13 10:16:43;;;;;;;1.60;1.30;;;17.20;99.90;;;;;;5026828;28;20048;-66
2023/07/13 10:19:27;;;;;;;2.50;1.25;;;17.40;99.90;;;;;;5025312;28;20084;-67
2023/07/13 10:21:56;;;;;;;1.85;1.40;;;17.60;99.90;;;;;;5026086;28;20079;-67
2023/07/13 10:24:32;;;;;;;4.40;1.73;;;17.60;99.90;;;;;;5030506;28;20056;-67
2023/07/13 10:27:04;;;;;;;2.63;1.58;;;17.80;99.90;;;;;;5022478;28;20038;-66
2023/07/13 10:29:34;;;;;;;2.65;1.63;;;17.90;99.90;;;;;;5032524;28;20049;-66
2023/07/13 10:32:00;;;;;;;5.00;2.15;;;17.90;99.90;;;;;;5032461;28;20050;-66
2023/07/13 10:34:26;;;;;;;5.03;2.47;;;17.90;99.90;;;;;;5030275;28;20041;-66
2023/07/13 10:36:53;;;;;;;3.08;2.08;;;18.10;99.90;;;;;;5025196;28;20495;-66
2023/07/13 10:39:22;;;;;;;4.60;2.30;;;18.30;99.90;;;;;;5027106;28;20041;-66
2023/07/13 10:41:57;;;;;;;5.68;3.00;;;18.60;99.90;;;;;;5023697;28;20037;-66
2023/07/13 10:44:28;;;;;;;6.30;3.45;;;18.80;99.90;;;;;;5025302;28;20034;-66
2023/07/13 10:47:04;;;;;;;5.38;3.30;;;19.10;99.90;;;;;;5030349;28;20124;-67
2023/07/13 10:49:32;;;;;;;9.13;3.78;;;19.30;99.90;;;;;;5029291;28;20033;-67
2023/07/13 10:51:58;;;;;;;5.97;3.88;;;19.50;99.90;;;;;;5029486;28;20098;-66
2023/07/13 10:54:31;;;;;;;7.45;4.70;;;19.50;99.90;;;;;;5023677;28;20052;-66
2023/07/13 10:57:21;;;;;;;5.55;4.03;;;19.60;99.90;;;;;;5031523;28;20079;-66
2023/07/13 10:59:50;;;;;;;6.32;4.38;;;19.70;99.90;;;;;;5047469;22;20423;-63
2023/07/13 11:02:36;;;;;;;8.18;4.80;;;19.80;99.90;;;;;;5049409;28;20033;-63
2023/07/13 11:05:26;;;;;;;6.68;5.05;;;19.90;99.90;;;;;;5049030;28;20053;-64
2023/07/13 11:08:01;;;;;;;7.93;4.80;;;19.90;99.90;;;;;;5049754;28;20040;-64
2023/07/13 11:11:00;;;;;;;8.43;5.03;;;20.00;99.90;;;;;;5031246;28;20033;-64
2023/07/13 11:13:45;;;;;;;6.55;4.60;;;20.10;99.90;;;;;;5030538;28;20415;-63
2023/07/13 11:16:20;;;;;;;12.32;6.03;;;20.00;99.90;;;;;;5032207;28;20049;-63
2023/07/13 11:18:50;;;;;;;9.15;4.78;;;19.90;99.90;;;;;;5031647;28;20041;-64
2023/07/13 11:21:26;;;;;;;6.75;5.18;;;19.80;99.90;;;;;;5029357;28;20096;-63
2023/07/13 11:24:00;;;;;;;8.38;4.57;;;19.60;99.90;;;;;;5026694;28;20033;-63
2023/07/13 11:26:48;;;;;;;5.72;3.13;;;19.50;99.90;;;;;;5028010;28;20033;-63
2023/07/13 11:29:31;;;;;;;5.53;2.83;;;19.20;99.90;;;;;;5028115;28;20030;-63
2023/07/13 11:32:01;;;;;;;4.38;2.75;;;18.90;99.90;;;;;;5026032;28;20060;-63
2023/07/13 11:34:37;;;;;;;3.72;2.50;;;18.70;99.90;;;;;;5022852;28;20037;-63
2023/07/13 11:37:04;;;;;;;4.45;2.67;;;18.80;99.90;;;;;;5026047;28;20033;-63
2023/07/13 11:39:35;;;;;;;1.95;1.63;;;18.90;99.90;;;;;;5024832;28;20065;-63
2023/07/13 11:42:05;;;;;;;2.05;1.45;;;19.20;99.90;;;;;;5020751;28;20491;-63
2023/07/13 11:44:34;;;;;;;1.98;1.40;;;19.30;99.90;;;;;;5026452;28;20041;-63
2023/07/13 11:47:09;;;;;;;2.35;1.40;;;19.50;99.90;;;;;;5024455;28;20140;-63
2023/07/13 11:49:43;;;;;;;3.53;1.45;;;19.70;99.90;;;;;;5029216;28;20033;-63
2023/07/13 11:52:21;;;;;;;3.80;2.10;;;19.90;99.90;;;;;;5022901;28;20561;-63
2023/07/13 11:54:55;;;;;;;2.45;1.83;;;19.90;99.90;;;;;;5028770;28;20060;-63
2023/07/13 11:57:33;;;;;;;2.35;1.65;;;20.10;99.90;;;;;;5015317;28;20377;-63
2023/07/13 12:00:06;;;;;;;5.05;2.28;;;20.40;99.90;;;;;;5029288;28;20068;-63
2023/07/13 12:02:44;;;;;;;4.88;2.35;;;20.70;99.90;;;;;;5018690;28;20044;-63
2023/07/13 12:05:15;;;;;;;3.00;2.20;;;20.90;99.90;;;;;;5026974;28;20041;-63
2023/07/13 12:07:40;;;;;;;4.30;2.33;;;21.00;99.90;;;;;;5028623;28;20049;-64
2023/07/13 12:10:09;;;;;;;5.43;2.67;;;21.10;99.90;;;;;;5030005;28;20188;-63
2023/07/13 12:12:37;;;;;;;4.43;2.63;;;21.20;99.90;;;;;;5031495;28;20052;-63
2023/07/13 12:15:06;;;;;;;5.25;3.35;;;21.30;99.90;;;;;;5028493;28;20041;-63
2023/07/13 12:17:34;;;;;;;5.75;3.25;;;21.40;99.90;;;;;;5031228;28;20045;-64
2023/07/13 12:20:06;;;;;;;6.70;3.10;;;21.60;99.90;;;;;;5029085;28;20033;-63
2023/07/13 12:22:34;;;;;;;8.32;3.45;;;21.60;99.90;;;;;;5029598;28;20095;-63
2023/07/13 12:25:00;;;;;;;5.25;3.70;;;21.50;99.90;;;;;;5029582;28;20193;-64
2023/07/13 12:27:28;;;;;;;7.68;3.67;;;21.40;99.90;;;;;;5029951;28;20116;-64
2023/07/13 12:30:00;;;;;;;9.00;4.70;;;21.30;99.90;;;;;;5030253;28;20037;-64
2023/07/13 12:32:26;;;;;;;7.95;3.78;;;21.20;99.90;;;;;;5024670;28;20044;-63
2023/07/13 12:34:57;;;;;;;6.20;3.75;;;21.10;99.90;;;;;;5028311;28;20379;-63
2023/07/13 12:37:24;;;;;;;5.57;3.78;;;21.00;99.90;;;;;;5030338;28;20064;-63
2023/07/13 12:39:51;;;;;;;7.10;3.30;;;20.90;99.90;;;;;;5030443;28;20065;-63
2023/07/13 12:42:28;;;;;;;7.13;2.97;;;20.80;99.90;;;;;;5030260;28;20128;-63
2023/07/13 12:44:57;;;;;;;8.25;2.95;;;20.70;99.90;;;;;;5030606;28;20381;-63
2023/07/13 12:47:23;;;;;;;5.75;2.55;;;20.60;99.90;;;;;;5028619;28;20111;-63
2023/07/13 12:50:21;;;;;;;5.90;2.67;;;20.60;99.90;;;;;;5029924;28;20086;-63
2023/07/13 12:52:52;;;;;;;4.72;2.30;;;20.50;99.90;;;;;;5029396;28;20120;-63